sensor_id;sensor_type;location;lat;lon;timestamp;temperature;humidity
22738;DHT22;11536;50.860;4.286;2023-07-20T00:01:23;18.30;99.90
22738;DHT22;11536;50.860;4.286;2023-07-20T00:03:48;18.30;99.90
22738;DHT22;11536;50.860;4.286;2023-07-20T00:06:23;18.30;99.90
22738;DHT22;11536;50.860;4.286;2023-07-20T00:08:50;18.30;99.90
22738;DHT22;11536;50.860;4.286;2023-07-20T00:11:16;18.30;99.90
22738;DHT22;11536;50.860;4.286;2023-07-20T00:13:42;18.30;99.90
22738;DHT22;11536;50.860;4.286;2023-07-20T00:16:08;18.30;99.90
22738;DHT22;11536;50.860;4.286;2023-07-20T00:18:34;18.30;99.90
22738;DHT22;11536;50.860;4.286;2023-07-20T00:20:59;18.30;99.90
22738;DHT22;11536;50.860;4.286;2023-07-20T00:23:26;18.30;99.90
22738;DHT22;11536;50.860;4.286;2023-07-20T00:25:51;18.30;99.90
22738;DHT22;11536;50.860;4.286;2023-07-20T00:28:17;18.30;99.90
22738;DHT22;11536;50.860;4.286;2023-07-20T00:30:42;18.30;99.90
22738;DHT22;11536;50.860;4.286;2023-07-20T00:33:10;18.30;99.90
22738;DHT22;11536;50.860;4.286;2023-07-20T00:35:36;18.30;99.90
22738;DHT22;11536;50.860;4.286;2023-07-20T00:38:03;18.30;99.90
22738;DHT22;11536;50.860;4.286;2023-07-20T00:40:35;18.30;99.90
22738;DHT22;11536;50.860;4.286;2023-07-20T00:43:00;18.30;99.90
22738;DHT22;11536;50.860;4.286;2023-07-20T00:45:26;18.30;99.90
22738;DHT22;11536;50.860;4.286;2023-07-20T00:47:52;18.30;99.90
22738;DHT22;11536;50.860;4.286;2023-07-20T00:50:18;18.30;99.90
22738;DHT22;11536;50.860;4.286;2023-07-20T00:52:43;18.30;99.90
22738;DHT22;11536;50.860;4.286;2023-07-20T00:55:09;18.30;99.90
22738;DHT22;11536;50.860;4.286;2023-07-20T00:57:35;18.30;99.90
22738;DHT22;11536;50.860;4.286;2023-07-20T01:00:01;18.30;99.90
22738;DHT22;11536;50.860;4.286;2023-07-20T01:02:27;18.30;99.90
22738;DHT22;11536;50.860;4.286;2023-07-20T01:04:53;18.30;99.90
22738;DHT22;11536;50.860;4.286;2023-07-20T01:07:23;18.30;99.90
22738;DHT22;11536;50.860;4.286;2023-07-20T01:10:16;18.30;99.90
22738;DHT22;11536;50.860;4.286;2023-07-20T01:12:48;18.30;99.90
22738;DHT22;11536;50.860;4.286;2023-07-20T01:15:16;18.30;99.90
22738;DHT22;11536;50.860;4.286;2023-07-20T01:17:41;18.20;99.90
22738;DHT22;11536;50.860;4.286;2023-07-20T01:20:09;18.30;99.90
22738;DHT22;11536;50.860;4.286;2023-07-20T01:31:13;18.20;99.90
22738;DHT22;11536;50.860;4.286;2023-07-20T01:33:41;18.20;99.90
22738;DHT22;11536;50.860;4.286;2023-07-20T01:36:07;18.20;99.90
22738;DHT22;11536;50.860;4.286;2023-07-20T01:38:34;18.20;99.90
22738;DHT22;11536;50.860;4.286;2023-07-20T01:41:00;18.20;99.90
22738;DHT22;11536;50.860;4.286;2023-07-20T01:43:25;18.20;99.90
22738;DHT22;11536;50.860;4.286;2023-07-20T01:45:51;18.20;99.90
22738;DHT22;11536;50.860;4.286;2023-07-20T01:48:16;18.20;99.90
22738;DHT22;11536;50.860;4.286;2023-07-20T01:50:42;18.20;99.90
22738;DHT22;11536;50.860;4.286;2023-07-20T01:53:08;18.20;99.90
22738;DHT22;11536;50.860;4.286;2023-07-20T01:55:34;18.20;99.90
22738;DHT22;11536;50.860;4.286;2023-07-20T01:57:59;18.10;99.90
22738;DHT22;11536;50.860;4.286;2023-07-20T02:00:26;18.10;99.90
22738;DHT22;11536;50.860;4.286;2023-07-20T02:02:52;18.10;99.90
22738;DHT22;11536;50.860;4.286;2023-07-20T02:05:17;18.10;99.90
22738;DHT22;11536;50.860;4.286;2023-07-20T02:07:43;18.10;99.90
22738;DHT22;11536;50.860;4.286;2023-07-20T02:10:09;18.10;99.90
22738;DHT22;11536;50.860;4.286;2023-07-20T02:12:35;18.10;99.90
22738;DHT22;11536;50.860;4.286;2023-07-20T02:15:02;18.00;99.90
22738;DHT22;11536;50.860;4.286;2023-07-20T02:17:27;18.10;99.90
22738;DHT22;11536;50.860;4.286;2023-07-20T02:19:53;18.10;99.90
22738;DHT22;11536;50.860;4.286;2023-07-20T02:22:20;18.00;99.90
22738;DHT22;11536;50.860;4.286;2023-07-20T02:24:46;18.00;99.90
22738;DHT22;11536;50.860;4.286;2023-07-20T02:27:12;18.00;99.90
22738;DHT22;11536;50.860;4.286;2023-07-20T02:29:37;18.00;99.90
22738;DHT22;11536;50.860;4.286;2023-07-20T02:32:03;18.00;99.90
22738;DHT22;11536;50.860;4.286;2023-07-20T02:34:29;18.00;99.90
22738;DHT22;11536;50.860;4.286;2023-07-20T02:36:55;18.00;99.90
22738;DHT22;11536;50.860;4.286;2023-07-20T02:39:24;18.00;99.90
22738;DHT22;11536;50.860;4.286;2023-07-20T02:41:50;18.00;99.90
22738;DHT22;11536;50.860;4.286;2023-07-20T02:44:15;18.00;99.90
22738;DHT22;11536;50.860;4.286;2023-07-20T02:46:41;17.90;99.90
22738;DHT22;11536;50.860;4.286;2023-07-20T02:49:07;18.00;99.90
22738;DHT22;11536;50.860;4.286;2023-07-20T02:51:32;17.90;99.90
22738;DHT22;11536;50.860;4.286;2023-07-20T02:53:59;17.90;99.90
22738;DHT22;11536;50.860;4.286;2023-07-20T02:56:24;17.90;99.90
22738;DHT22;11536;50.860;4.286;2023-07-20T02:58:50;17.90;99.90
22738;DHT22;11536;50.860;4.286;2023-07-20T03:01:16;17.90;99.90
22738;DHT22;11536;50.860;4.286;2023-07-20T03:03:44;17.80;99.90
22738;DHT22;11536;50.860;4.286;2023-07-20T03:06:16;17.80;99.90
22738;DHT22;11536;50.860;4.286;2023-07-20T03:08:43;17.90;99.90
22738;DHT22;11536;50.860;4.286;2023-07-20T03:11:14;17.80;99.90
22738;DHT22;11536;50.860;4.286;2023-07-20T03:13:43;17.80;99.90
22738;DHT22;11536;50.860;4.286;2023-07-20T03:16:09;17.90;99.90
22738;DHT22;11536;50.860;4.286;2023-07-20T03:18:39;17.90;99.90
22738;DHT22;11536;50.860;4.286;2023-07-20T03:21:07;17.80;99.90
22738;DHT22;11536;50.860;4.286;2023-07-20T03:23:33;17.80;99.90
22738;DHT22;11536;50.860;4.286;2023-07-20T03:25:58;17.80;99.90
22738;DHT22;11536;50.860;4.286;2023-07-20T03:28:24;17.80;99.90
22738;DHT22;11536;50.860;4.286;2023-07-20T03:30:56;17.80;99.90
22738;DHT22;11536;50.860;4.286;2023-07-20T03:33:27;17.80;99.90
22738;DHT22;11536;50.860;4.286;2023-07-20T03:35:53;17.80;99.90
22738;DHT22;11536;50.860;4.286;2023-07-20T03:38:19;17.70;99.90
22738;DHT22;11536;50.860;4.286;2023-07-20T03:40:55;17.80;99.90
22738;DHT22;11536;50.860;4.286;2023-07-20T03:43:22;17.70;99.90
22738;DHT22;11536;50.860;4.286;2023-07-20T03:45:48;17.80;99.90
22738;DHT22;11536;50.860;4.286;2023-07-20T03:48:16;17.70;99.90
22738;DHT22;11536;50.860;4.286;2023-07-20T03:50:43;17.80;99.90
22738;DHT22;11536;50.860;4.286;2023-07-20T03:53:09;17.80;99.90
22738;DHT22;11536;50.860;4.286;2023-07-20T03:55:34;17.80;99.90
22738;DHT22;11536;50.860;4.286;2023-07-20T03:58:01;17.70;99.90
22738;DHT22;11536;50.860;4.286;2023-07-20T04:00:27;17.70;99.90
22738;DHT22;11536;50.860;4.286;2023-07-20T04:02:52;17.70;99.90
22738;DHT22;11536;50.860;4.286;2023-07-20T04:05:18;17.70;99.90
22738;DHT22;11536;50.860;4.286;2023-07-20T04:07:44;17.70;99.90
22738;DHT22;11536;50.860;4.286;2023-07-20T04:10:10;17.70;99.90
22738;DHT22;11536;50.860;4.286;2023-07-20T04:12:35;17.70;99.90
22738;DHT22;11536;50.860;4.286;2023-07-20T04:15:01;17.80;99.90
22738;DHT22;11536;50.860;4.286;2023-07-20T04:17:29;17.80;99.90
22738;DHT22;11536;50.860;4.286;2023-07-20T04:19:54;17.80;99.90
22738;DHT22;11536;50.860;4.286;2023-07-20T04:22:20;17.80;99.90
22738;DHT22;11536;50.860;4.286;2023-07-20T04:24:46;17.80;99.90
22738;DHT22;11536;50.860;4.286;2023-07-20T04:27:12;17.90;99.90
22738;DHT22;11536;50.860;4.286;2023-07-20T04:29:37;17.90;99.90
22738;DHT22;11536;50.860;4.286;2023-07-20T04:32:03;17.90;99.90
22738;DHT22;11536;50.860;4.286;2023-07-20T04:34:29;17.80;99.90
22738;DHT22;11536;50.860;4.286;2023-07-20T04:36:54;17.80;99.90
22738;DHT22;11536;50.860;4.286;2023-07-20T04:39:20;17.90;99.90
22738;DHT22;11536;50.860;4.286;2023-07-20T04:41:45;17.80;99.90
22738;DHT22;11536;50.860;4.286;2023-07-20T04:44:12;17.80;99.90
22738;DHT22;11536;50.860;4.286;2023-07-20T04:46:38;17.80;99.90
22738;DHT22;11536;50.860;4.286;2023-07-20T04:49:05;17.80;99.90
22738;DHT22;11536;50.860;4.286;2023-07-20T04:51:31;17.80;99.90
22738;DHT22;11536;50.860;4.286;2023-07-20T04:53:57;17.90;99.90
22738;DHT22;11536;50.860;4.286;2023-07-20T04:56:23;17.90;99.90
22738;DHT22;11536;50.860;4.286;2023-07-20T04:58:49;17.90;99.90
22738;DHT22;11536;50.860;4.286;2023-07-20T05:01:14;17.80;99.90
22738;DHT22;11536;50.860;4.286;2023-07-20T05:03:40;17.80;99.90
22738;DHT22;11536;50.860;4.286;2023-07-20T05:06:05;17.80;99.90
22738;DHT22;11536;50.860;4.286;2023-07-20T05:08:31;17.80;99.90
22738;DHT22;11536;50.860;4.286;2023-07-20T05:10:56;17.90;99.90
22738;DHT22;11536;50.860;4.286;2023-07-20T05:13:22;17.90;99.90
22738;DHT22;11536;50.860;4.286;2023-07-20T05:15:51;17.90;99.90
22738;DHT22;11536;50.860;4.286;2023-07-20T05:18:18;17.90;99.90
22738;DHT22;11536;50.860;4.286;2023-07-20T05:20:46;17.90;99.90
22738;DHT22;11536;50.860;4.286;2023-07-20T05:23:12;17.90;99.90
22738;DHT22;11536;50.860;4.286;2023-07-20T05:25:38;17.90;99.90
22738;DHT22;11536;50.860;4.286;2023-07-20T05:28:03;17.90;99.90
22738;DHT22;11536;50.860;4.286;2023-07-20T05:30:29;17.90;99.90
22738;DHT22;11536;50.860;4.286;2023-07-20T05:32:54;18.00;99.90
22738;DHT22;11536;50.860;4.286;2023-07-20T05:35:20;18.00;99.90
22738;DHT22;11536;50.860;4.286;2023-07-20T05:37:46;18.00;99.90
22738;DHT22;11536;50.860;4.286;2023-07-20T05:40:12;18.00;99.90
22738;DHT22;11536;50.860;4.286;2023-07-20T05:42:38;18.00;99.90
22738;DHT22;11536;50.860;4.286;2023-07-20T05:45:05;18.00;99.90
22738;DHT22;11536;50.860;4.286;2023-07-20T05:47:30;18.00;99.90
22738;DHT22;11536;50.860;4.286;2023-07-20T05:49:57;18.00;99.90
22738;DHT22;11536;50.860;4.286;2023-07-20T05:52:23;18.00;99.90
22738;DHT22;11536;50.860;4.286;2023-07-20T05:54:48;18.00;99.90
22738;DHT22;11536;50.860;4.286;2023-07-20T05:57:14;18.00;99.90
22738;DHT22;11536;50.860;4.286;2023-07-20T05:59:39;18.10;99.90
22738;DHT22;11536;50.860;4.286;2023-07-20T06:02:09;18.10;99.90
22738;DHT22;11536;50.860;4.286;2023-07-20T06:04:35;18.10;99.90
22738;DHT22;11536;50.860;4.286;2023-07-20T06:07:00;18.20;99.90
22738;DHT22;11536;50.860;4.286;2023-07-20T06:09:26;18.20;99.90
22738;DHT22;11536;50.860;4.286;2023-07-20T06:11:52;18.20;99.90
22738;DHT22;11536;50.860;4.286;2023-07-20T06:14:18;18.20;99.90
22738;DHT22;11536;50.860;4.286;2023-07-20T06:16:44;18.20;99.90
22738;DHT22;11536;50.860;4.286;2023-07-20T06:19:09;18.20;99.90
22738;DHT22;11536;50.860;4.286;2023-07-20T06:21:37;18.20;99.90
22738;DHT22;11536;50.860;4.286;2023-07-20T06:24:03;18.20;99.90
22738;DHT22;11536;50.860;4.286;2023-07-20T06:26:29;18.20;99.90
22738;DHT22;11536;50.860;4.286;2023-07-20T06:28:56;18.20;99.90
22738;DHT22;11536;50.860;4.286;2023-07-20T06:31:21;18.30;99.90
22738;DHT22;11536;50.860;4.286;2023-07-20T06:33:47;18.30;99.90
22738;DHT22;11536;50.860;4.286;2023-07-20T06:36:13;18.30;99.90
22738;DHT22;11536;50.860;4.286;2023-07-20T06:38:38;18.30;99.90
22738;DHT22;11536;50.860;4.286;2023-07-20T06:41:04;18.40;99.90
22738;DHT22;11536;50.860;4.286;2023-07-20T06:43:30;18.40;99.90
22738;DHT22;11536;50.860;4.286;2023-07-20T06:45:55;18.40;99.90
22738;DHT22;11536;50.860;4.286;2023-07-20T06:48:21;18.40;99.90
22738;DHT22;11536;50.860;4.286;2023-07-20T06:50:47;18.40;99.90
22738;DHT22;11536;50.860;4.286;2023-07-20T06:53:13;18.40;99.90
22738;DHT22;11536;50.860;4.286;2023-07-20T06:55:38;18.40;99.90
22738;DHT22;11536;50.860;4.286;2023-07-20T06:58:04;18.50;99.90
22738;DHT22;11536;50.860;4.286;2023-07-20T07:00:30;18.50;99.90
22738;DHT22;11536;50.860;4.286;2023-07-20T07:02:56;18.50;99.90
22738;DHT22;11536;50.860;4.286;2023-07-20T07:05:21;18.60;99.90
22738;DHT22;11536;50.860;4.286;2023-07-20T07:07:47;18.60;99.90
22738;DHT22;11536;50.860;4.286;2023-07-20T07:10:13;18.60;99.90
22738;DHT22;11536;50.860;4.286;2023-07-20T07:12:39;18.60;99.90
22738;DHT22;11536;50.860;4.286;2023-07-20T07:15:05;18.50;99.90
22738;DHT22;11536;50.860;4.286;2023-07-20T07:17:33;18.60;99.90
22738;DHT22;11536;50.860;4.286;2023-07-20T07:20:00;18.60;99.90
22738;DHT22;11536;50.860;4.286;2023-07-20T07:22:26;18.60;99.90
22738;DHT22;11536;50.860;4.286;2023-07-20T07:24:51;18.70;99.90
22738;DHT22;11536;50.860;4.286;2023-07-20T07:27:17;18.70;99.90
22738;DHT22;11536;50.860;4.286;2023-07-20T07:29:43;18.70;99.90
22738;DHT22;11536;50.860;4.286;2023-07-20T07:32:10;18.80;99.90
22738;DHT22;11536;50.860;4.286;2023-07-20T07:34:36;18.80;99.90
22738;DHT22;11536;50.860;4.286;2023-07-20T07:37:02;18.80;99.90
22738;DHT22;11536;50.860;4.286;2023-07-20T07:39:28;18.90;99.90
22738;DHT22;11536;50.860;4.286;2023-07-20T07:41:55;18.90;99.90
22738;DHT22;11536;50.860;4.286;2023-07-20T07:44:21;18.90;99.90
22738;DHT22;11536;50.860;4.286;2023-07-20T07:46:46;19.00;99.90
22738;DHT22;11536;50.860;4.286;2023-07-20T07:49:12;19.00;99.90
22738;DHT22;11536;50.860;4.286;2023-07-20T07:51:38;19.10;99.90
22738;DHT22;11536;50.860;4.286;2023-07-20T07:54:03;19.10;99.90
22738;DHT22;11536;50.860;4.286;2023-07-20T07:56:29;19.10;99.90
22738;DHT22;11536;50.860;4.286;2023-07-20T07:58:55;19.10;99.90
22738;DHT22;11536;50.860;4.286;2023-07-20T08:01:20;19.10;99.90
22738;DHT22;11536;50.860;4.286;2023-07-20T08:03:46;19.10;99.90
22738;DHT22;11536;50.860;4.286;2023-07-20T08:06:16;19.10;99.90
22738;DHT22;11536;50.860;4.286;2023-07-20T08:08:41;19.10;99.90
22738;DHT22;11536;50.860;4.286;2023-07-20T08:11:08;19.10;99.90
22738;DHT22;11536;50.860;4.286;2023-07-20T08:13:35;19.20;99.90
22738;DHT22;11536;50.860;4.286;2023-07-20T08:16:01;19.20;99.90
22738;DHT22;11536;50.860;4.286;2023-07-20T08:18:30;19.10;99.90
22738;DHT22;11536;50.860;4.286;2023-07-20T08:20:56;19.20;99.90
22738;DHT22;11536;50.860;4.286;2023-07-20T08:23:22;19.20;99.90
22738;DHT22;11536;50.860;4.286;2023-07-20T08:25:47;19.20;99.90
22738;DHT22;11536;50.860;4.286;2023-07-20T08:28:16;19.30;99.90
22738;DHT22;11536;50.860;4.286;2023-07-20T08:30:44;19.30;99.90
22738;DHT22;11536;50.860;4.286;2023-07-20T08:33:12;19.40;99.90
22738;DHT22;11536;50.860;4.286;2023-07-20T08:35:38;19.40;99.90
22738;DHT22;11536;50.860;4.286;2023-07-20T08:38:03;19.50;99.90
22738;DHT22;11536;50.860;4.286;2023-07-20T08:40:31;19.50;99.90
22738;DHT22;11536;50.860;4.286;2023-07-20T08:42:58;19.60;99.90
22738;DHT22;11536;50.860;4.286;2023-07-20T08:45:26;19.60;99.90
22738;DHT22;11536;50.860;4.286;2023-07-20T08:47:55;19.70;99.90
22738;DHT22;11536;50.860;4.286;2023-07-20T08:50:21;19.70;99.90
22738;DHT22;11536;50.860;4.286;2023-07-20T08:52:48;19.80;99.90
22738;DHT22;11536;50.860;4.286;2023-07-20T08:55:16;19.80;99.90
22738;DHT22;11536;50.860;4.286;2023-07-20T08:57:42;19.90;99.90
22738;DHT22;11536;50.860;4.286;2023-07-20T09:00:12;19.90;99.90
22738;DHT22;11536;50.860;4.286;2023-07-20T09:02:39;20.00;99.90
22738;DHT22;11536;50.860;4.286;2023-07-20T09:05:10;19.90;99.90
22738;DHT22;11536;50.860;4.286;2023-07-20T09:07:36;20.00;99.90
22738;DHT22;11536;50.860;4.286;2023-07-20T09:10:02;20.00;99.90
22738;DHT22;11536;50.860;4.286;2023-07-20T09:12:34;20.00;99.90
22738;DHT22;11536;50.860;4.286;2023-07-20T09:15:00;20.00;99.90
22738;DHT22;11536;50.860;4.286;2023-07-20T09:17:26;20.10;99.90
22738;DHT22;11536;50.860;4.286;2023-07-20T09:19:52;20.10;99.90
22738;DHT22;11536;50.860;4.286;2023-07-20T09:22:18;20.10;99.90
22738;DHT22;11536;50.860;4.286;2023-07-20T09:24:44;20.20;99.90
22738;DHT22;11536;50.860;4.286;2023-07-20T09:27:10;20.10;99.90
22738;DHT22;11536;50.860;4.286;2023-07-20T09:29:53;20.20;99.90
22738;DHT22;11536;50.860;4.286;2023-07-20T09:32:20;20.30;99.90
22738;DHT22;11536;50.860;4.286;2023-07-20T09:34:46;20.40;99.90
22738;DHT22;11536;50.860;4.286;2023-07-20T09:37:12;20.50;99.90
22738;DHT22;11536;50.860;4.286;2023-07-20T09:39:47;20.50;99.90
22738;DHT22;11536;50.860;4.286;2023-07-20T09:42:13;20.50;99.90
22738;DHT22;11536;50.860;4.286;2023-07-20T09:44:43;20.50;99.90
22738;DHT22;11536;50.860;4.286;2023-07-20T09:47:09;20.50;99.90
22738;DHT22;11536;50.860;4.286;2023-07-20T09:49:41;20.60;99.90
22738;DHT22;11536;50.860;4.286;2023-07-20T09:52:08;20.70;99.90
22738;DHT22;11536;50.860;4.286;2023-07-20T09:54:38;20.70;99.90
22738;DHT22;11536;50.860;4.286;2023-07-20T09:57:06;20.80;99.90
22738;DHT22;11536;50.860;4.286;2023-07-20T09:59:33;20.80;99.90
22738;DHT22;11536;50.860;4.286;2023-07-20T10:02:01;20.80;99.90
22738;DHT22;11536;50.860;4.286;2023-07-20T10:04:28;20.90;99.90
22738;DHT22;11536;50.860;4.286;2023-07-20T10:06:55;20.90;99.90
22738;DHT22;11536;50.860;4.286;2023-07-20T10:09:22;20.90;99.90
22738;DHT22;11536;50.860;4.286;2023-07-20T10:11:53;21.00;99.90
22738;DHT22;11536;50.860;4.286;2023-07-20T10:14:20;21.00;99.90
22738;DHT22;11536;50.860;4.286;2023-07-20T10:16:56;21.00;99.90
22738;DHT22;11536;50.860;4.286;2023-07-20T10:19:31;21.00;99.90
22738;DHT22;11536;50.860;4.286;2023-07-20T10:22:12;21.00;99.90
22738;DHT22;11536;50.860;4.286;2023-07-20T10:24:39;21.10;99.90
22738;DHT22;11536;50.860;4.286;2023-07-20T10:27:06;21.10;99.90
22738;DHT22;11536;50.860;4.286;2023-07-20T10:29:32;21.10;99.90
22738;DHT22;11536;50.860;4.286;2023-07-20T10:31:58;21.20;99.90
22738;DHT22;11536;50.860;4.286;2023-07-20T10:34:25;21.20;99.90
22738;DHT22;11536;50.860;4.286;2023-07-20T10:36:51;21.20;99.90
22738;DHT22;11536;50.860;4.286;2023-07-20T10:39:25;21.20;99.90
22738;DHT22;11536;50.860;4.286;2023-07-20T10:42:03;21.20;99.90
22738;DHT22;11536;50.860;4.286;2023-07-20T10:44:30;21.20;99.90
22738;DHT22;11536;50.860;4.286;2023-07-20T10:47:00;21.20;99.90
22738;DHT22;11536;50.860;4.286;2023-07-20T10:49:26;21.20;99.90
22738;DHT22;11536;50.860;4.286;2023-07-20T10:51:59;21.20;99.90
22738;DHT22;11536;50.860;4.286;2023-07-20T10:56:50;21.30;99.90
22738;DHT22;11536;50.860;4.286;2023-07-20T10:59:41;21.30;99.90
22738;DHT22;11536;50.860;4.286;2023-07-20T11:02:09;21.40;99.90
22738;DHT22;11536;50.860;4.286;2023-07-20T11:04:39;21.40;99.90
22738;DHT22;11536;50.860;4.286;2023-07-20T11:07:05;21.40;99.90
22738;DHT22;11536;50.860;4.286;2023-07-20T11:09:35;21.40;99.90
22738;DHT22;11536;50.860;4.286;2023-07-20T11:12:12;21.40;99.90
22738;DHT22;11536;50.860;4.286;2023-07-20T11:14:43;21.50;99.90
22738;DHT22;11536;50.860;4.286;2023-07-20T11:17:13;21.50;99.90
22738;DHT22;11536;50.860;4.286;2023-07-20T11:19:39;21.50;99.90
22738;DHT22;11536;50.860;4.286;2023-07-20T11:22:07;21.60;99.90
22738;DHT22;11536;50.860;4.286;2023-07-20T11:24:33;21.60;99.90
22738;DHT22;11536;50.860;4.286;2023-07-20T11:27:00;21.60;99.90
22738;DHT22;11536;50.860;4.286;2023-07-20T11:29:26;21.70;99.90
22738;DHT22;11536;50.860;4.286;2023-07-20T11:31:52;21.70;99.90
22738;DHT22;11536;50.860;4.286;2023-07-20T11:34:19;21.80;99.90
22738;DHT22;11536;50.860;4.286;2023-07-20T11:36:47;21.90;99.90
22738;DHT22;11536;50.860;4.286;2023-07-20T11:39:14;21.90;99.90
22738;DHT22;11536;50.860;4.286;2023-07-20T11:41:54;22.00;99.90
22738;DHT22;11536;50.860;4.286;2023-07-20T11:44:21;22.00;99.90
22738;DHT22;11536;50.860;4.286;2023-07-20T11:47:00;22.00;99.90
22738;DHT22;11536;50.860;4.286;2023-07-20T11:49:26;22.00;99.90
22738;DHT22;11536;50.860;4.286;2023-07-20T11:51:52;22.00;99.90
22738;DHT22;11536;50.860;4.286;2023-07-20T11:54:18;22.00;99.90
22738;DHT22;11536;50.860;4.286;2023-07-20T11:56:44;22.00;99.90
22738;DHT22;11536;50.860;4.286;2023-07-20T11:59:10;22.00;99.90
22738;DHT22;11536;50.860;4.286;2023-07-20T12:01:35;22.00;99.90
22738;DHT22;11536;50.860;4.286;2023-07-20T12:04:03;22.00;99.90
22738;DHT22;11536;50.860;4.286;2023-07-20T12:06:29;22.00;99.90
22738;DHT22;11536;50.860;4.286;2023-07-20T12:08:58;22.10;99.90
22738;DHT22;11536;50.860;4.286;2023-07-20T12:11:37;22.10;99.90
22738;DHT22;11536;50.860;4.286;2023-07-20T12:14:07;22.10;99.90
22738;DHT22;11536;50.860;4.286;2023-07-20T12:16:34;22.10;99.90
22738;DHT22;11536;50.860;4.286;2023-07-20T12:19:08;22.00;99.90
22738;DHT22;11536;50.860;4.286;2023-07-20T12:21:35;22.00;99.90
22738;DHT22;11536;50.860;4.286;2023-07-20T12:24:05;22.00;99.90
22738;DHT22;11536;50.860;4.286;2023-07-20T12:26:32;22.10;99.90
22738;DHT22;11536;50.860;4.286;2023-07-20T12:28:58;22.10;99.90
22738;DHT22;11536;50.860;4.286;2023-07-20T12:31:24;22.10;99.90
22738;DHT22;11536;50.860;4.286;2023-07-20T12:33:51;22.20;99.90
22738;DHT22;11536;50.860;4.286;2023-07-20T12:36:17;22.20;99.90
22738;DHT22;11536;50.860;4.286;2023-07-20T12:38:43;22.20;99.90
22738;DHT22;11536;50.860;4.286;2023-07-20T12:41:11;22.20;99.90
22738;DHT22;11536;50.860;4.286;2023-07-20T12:43:43;22.20;99.90
22738;DHT22;11536;50.860;4.286;2023-07-20T12:46:10;22.20;99.90
22738;DHT22;11536;50.860;4.286;2023-07-20T12:48:40;22.20;99.90
22738;DHT22;11536;50.860;4.286;2023-07-20T12:51:08;22.20;99.90
22738;DHT22;11536;50.860;4.286;2023-07-20T12:53:34;22.30;99.90
22738;DHT22;11536;50.860;4.286;2023-07-20T12:56:01;22.30;99.90
22738;DHT22;11536;50.860;4.286;2023-07-20T12:58:27;22.40;99.90
22738;DHT22;11536;50.860;4.286;2023-07-20T13:00:52;22.30;99.90
22738;DHT22;11536;50.860;4.286;2023-07-20T13:03:18;22.30;99.90
22738;DHT22;11536;50.860;4.286;2023-07-20T13:05:48;22.30;99.90
22738;DHT22;11536;50.860;4.286;2023-07-20T13:08:14;22.30;99.90
22738;DHT22;11536;50.860;4.286;2023-07-20T13:10:41;22.20;99.90
22738;DHT22;11536;50.860;4.286;2023-07-20T13:13:07;22.20;99.90
22738;DHT22;11536;50.860;4.286;2023-07-20T13:15:41;22.10;99.90
22738;DHT22;11536;50.860;4.286;2023-07-20T13:18:06;22.20;99.90
22738;DHT22;11536;50.860;4.286;2023-07-20T13:20:32;22.10;99.90
22738;DHT22;11536;50.860;4.286;2023-07-20T13:22:58;22.10;99.90
22738;DHT22;11536;50.860;4.286;2023-07-20T13:25:24;22.00;99.90
22738;DHT22;11536;50.860;4.286;2023-07-20T13:27:49;22.00;99.90
22738;DHT22;11536;50.860;4.286;2023-07-20T13:30:15;21.90;99.90
22738;DHT22;11536;50.860;4.286;2023-07-20T13:32:45;21.90;99.90
22738;DHT22;11536;50.860;4.286;2023-07-20T13:35:14;21.90;99.90
22738;DHT22;11536;50.860;4.286;2023-07-20T13:37:40;21.80;99.90
22738;DHT22;11536;50.860;4.286;2023-07-20T13:40:09;21.70;99.90
22738;DHT22;11536;50.860;4.286;2023-07-20T13:42:38;21.70;99.90
22738;DHT22;11536;50.860;4.286;2023-07-20T13:45:06;21.60;99.90
22738;DHT22;11536;50.860;4.286;2023-07-20T13:47:32;21.60;99.90
22738;DHT22;11536;50.860;4.286;2023-07-20T13:49:57;21.50;99.90
22738;DHT22;11536;50.860;4.286;2023-07-20T13:52:23;21.50;99.90
22738;DHT22;11536;50.860;4.286;2023-07-20T13:54:48;21.50;99.90
22738;DHT22;11536;50.860;4.286;2023-07-20T13:57:14;21.40;99.90
22738;DHT22;11536;50.860;4.286;2023-07-20T13:59:40;21.40;99.90
22738;DHT22;11536;50.860;4.286;2023-07-20T14:02:07;21.40;99.90
22738;DHT22;11536;50.860;4.286;2023-07-20T14:04:32;21.40;99.90
22738;DHT22;11536;50.860;4.286;2023-07-20T14:06:58;21.40;99.90
22738;DHT22;11536;50.860;4.286;2023-07-20T14:09:23;21.40;99.90
22738;DHT22;11536;50.860;4.286;2023-07-20T14:11:49;21.40;99.90
22738;DHT22;11536;50.860;4.286;2023-07-20T14:14:15;21.50;99.90
22738;DHT22;11536;50.860;4.286;2023-07-20T14:16:40;21.60;99.90
22738;DHT22;11536;50.860;4.286;2023-07-20T14:19:06;21.70;99.90
22738;DHT22;11536;50.860;4.286;2023-07-20T14:21:32;21.80;99.90
22738;DHT22;11536;50.860;4.286;2023-07-20T14:23:58;21.90;99.90
22738;DHT22;11536;50.860;4.286;2023-07-20T14:26:24;21.90;99.90
22738;DHT22;11536;50.860;4.286;2023-07-20T14:28:50;21.90;99.90
22738;DHT22;11536;50.860;4.286;2023-07-20T14:31:16;22.00;99.90
22738;DHT22;11536;50.860;4.286;2023-07-20T14:33:41;22.10;99.90
22738;DHT22;11536;50.860;4.286;2023-07-20T14:36:07;22.10;99.90
22738;DHT22;11536;50.860;4.286;2023-07-20T14:38:34;22.20;99.90
22738;DHT22;11536;50.860;4.286;2023-07-20T14:40:59;22.20;99.90
22738;DHT22;11536;50.860;4.286;2023-07-20T14:43:25;22.30;99.90
22738;DHT22;11536;50.860;4.286;2023-07-20T14:45:51;22.30;99.90
22738;DHT22;11536;50.860;4.286;2023-07-20T14:48:16;22.30;99.90
22738;DHT22;11536;50.860;4.286;2023-07-20T14:50:42;22.30;99.90
22738;DHT22;11536;50.860;4.286;2023-07-20T14:53:11;22.30;99.90
22738;DHT22;11536;50.860;4.286;2023-07-20T14:55:37;22.30;99.90
22738;DHT22;11536;50.860;4.286;2023-07-20T14:58:03;22.30;99.90
22738;DHT22;11536;50.860;4.286;2023-07-20T15:00:28;22.30;99.90
22738;DHT22;11536;50.860;4.286;2023-07-20T15:02:55;22.30;99.90
22738;DHT22;11536;50.860;4.286;2023-07-20T15:05:22;22.30;99.90
22738;DHT22;11536;50.860;4.286;2023-07-20T15:07:48;22.20;99.90
22738;DHT22;11536;50.860;4.286;2023-07-20T15:10:15;22.20;99.90
22738;DHT22;11536;50.860;4.286;2023-07-20T15:12:41;22.20;99.90
22738;DHT22;11536;50.860;4.286;2023-07-20T15:15:12;22.20;99.90
22738;DHT22;11536;50.860;4.286;2023-07-20T15:17:39;22.20;99.90
22738;DHT22;11536;50.860;4.286;2023-07-20T15:20:06;22.20;99.90
22738;DHT22;11536;50.860;4.286;2023-07-20T15:22:33;22.10;99.90
22738;DHT22;11536;50.860;4.286;2023-07-20T15:24:59;22.10;99.90
22738;DHT22;11536;50.860;4.286;2023-07-20T15:27:26;22.10;99.90
22738;DHT22;11536;50.860;4.286;2023-07-20T15:29:51;22.10;99.90
22738;DHT22;11536;50.860;4.286;2023-07-20T15:32:20;22.00;99.90
22738;DHT22;11536;50.860;4.286;2023-07-20T15:34:46;22.00;99.90
22738;DHT22;11536;50.860;4.286;2023-07-20T15:37:12;21.90;99.90
22738;DHT22;11536;50.860;4.286;2023-07-20T15:39:38;21.80;99.90